Minden, Louisiana
Current Conditions -  °F | °C
As of 1:55 PM on Friday 24 Oct 2014 (Local Time) from KMNE Reporting Station
Clear Clear  
Wind Chill: 73°   Ceiling: Unl
Heat Index: 73°   Visibility: 10mi
Dew Point: 48°   Wind: 6mph
Humidity: 41%   Direction: 10°N
Pressure: 30.14"   Gusts: NA
Location:  32.62°N, 93.29°W
Report Text: KMNE 241855Z AUTO 01005KT 10SM CLR 23/09 A3014 RMK AO2
Loading
Personal Weather Stations






























Interactive Weather Map
Tropical Storm Tracking
New forecast layout! Learn more

10-Day Weather Forecast

Advertisements
Track Severe Weather on mobile